createdAt,value
2022-07-29T00:01:19.043Z,22.41
2022-07-29T00:03:48.170Z,22.44
2022-07-29T00:06:16.558Z,22.45
2022-07-29T00:08:45.886Z,22.49
2022-07-29T00:11:13.837Z,22.54
2022-07-29T00:13:45.322Z,22.58
2022-07-29T00:16:17.691Z,22.60
2022-07-29T00:18:48.833Z,22.60
2022-07-29T00:21:19.029Z,22.63
2022-07-29T00:23:48.292Z,22.60
2022-07-29T00:26:16.066Z,22.57
2022-07-29T00:28:48.278Z,22.53
2022-07-29T00:31:16.347Z,22.55
2022-07-29T00:33:45.117Z,22.56
2022-07-29T00:36:13.035Z,22.52
2022-07-29T00:38:40.847Z,22.50
2022-07-29T00:41:10.170Z,22.50
2022-07-29T00:43:38.876Z,22.46
2022-07-29T00:46:06.673Z,22.49
2022-07-29T00:48:34.602Z,22.49
2022-07-29T00:51:07.151Z,22.45
2022-07-29T00:53:36.589Z,22.48
2022-07-29T00:56:04.987Z,22.46
2022-07-29T00:58:35.584Z,22.42
2022-07-29T01:01:03.427Z,22.37
2022-07-29T01:03:31.630Z,22.26
2022-07-29T01:06:00.379Z,22.11
2022-07-29T01:08:29.660Z,21.95
2022-07-29T01:10:57.836Z,21.87
2022-07-29T01:13:26.819Z,21.82
2022-07-29T01:16:08.302Z,21.79
2022-07-29T01:18:38.281Z,21.78
2022-07-29T01:21:28.653Z,21.81
2022-07-29T01:24:13.281Z,21.79
2022-07-29T01:26:50.071Z,21.82
2022-07-29T01:29:31.002Z,21.85
2022-07-29T01:32:08.768Z,21.84
2022-07-29T01:34:57.087Z,21.87
2022-07-29T01:37:29.627Z,21.87
2022-07-29T01:40:00.139Z,21.88
2022-07-29T01:42:33.205Z,21.88
2022-07-29T01:45:10.072Z,21.81
2022-07-29T01:47:43.562Z,21.88
2022-07-29T01:50:15.914Z,21.87
2022-07-29T01:52:50.664Z,21.87
2022-07-29T01:55:21.219Z,21.87
2022-07-29T01:57:49.898Z,21.86
2022-07-29T02:00:20.078Z,21.82
2022-07-29T02:02:50.066Z,21.77
2022-07-29T02:05:22.430Z,21.77
2022-07-29T02:07:53.602Z,21.79
2022-07-29T02:10:26.839Z,21.78
2022-07-29T02:12:56.319Z,21.83
2022-07-29T02:15:33.109Z,21.77
2022-07-29T02:18:06.294Z,21.80
2022-07-29T02:20:35.297Z,21.77
2022-07-29T02:23:05.508Z,21.76
2022-07-29T02:25:37.444Z,21.76
2022-07-29T02:28:07.380Z,21.76
2022-07-29T02:30:43.577Z,21.72
2022-07-29T02:33:18.491Z,21.72
2022-07-29T02:35:49.163Z,21.75
2022-07-29T02:38:19.048Z,21.72
2022-07-29T02:40:49.676Z,21.60
2022-07-29T02:43:20.148Z,21.68
2022-07-29T02:45:54.333Z,21.68
2022-07-29T02:48:39.727Z,21.67
2022-07-29T02:51:13.566Z,21.64
2022-07-29T02:54:05.818Z,21.63
2022-07-29T02:56:35.584Z,21.62
2022-07-29T02:59:08.908Z,21.60
2022-07-29T03:01:43.152Z,21.64
2022-07-29T03:04:14.301Z,21.62
2022-07-29T03:06:44.343Z,21.62
2022-07-29T03:09:14.324Z,21.61
2022-07-29T03:11:49.320Z,21.60
2022-07-29T03:14:20.475Z,21.58
2022-07-29T03:16:51.563Z,21.57
2022-07-29T03:19:20.478Z,21.58
2022-07-29T03:21:48.310Z,21.58
2022-07-29T03:24:26.849Z,21.62
2022-07-29T03:26:56.183Z,21.60
2022-07-29T03:29:24.754Z,21.63
2022-07-29T03:32:02.722Z,21.63
2022-07-29T03:34:31.432Z,21.62
2022-07-29T03:36:59.420Z,21.65
2022-07-29T03:39:34.150Z,21.64
2022-07-29T03:42:03.037Z,21.65
2022-07-29T03:44:33.105Z,21.64
2022-07-29T03:47:07.876Z,21.64
2022-07-29T03:49:38.657Z,21.64
2022-07-29T03:52:06.799Z,21.64
2022-07-29T03:54:36.151Z,21.62
2022-07-29T03:57:06.034Z,21.61
2022-07-29T03:59:35.503Z,21.61
2022-07-29T04:02:07.515Z,21.61
2022-07-29T04:04:35.708Z,21.61
2022-07-29T04:07:03.764Z,21.58
2022-07-29T04:09:32.006Z,21.58
2022-07-29T04:12:03.169Z,21.60
2022-07-29T04:14:34.919Z,21.61
2022-07-29T04:17:05.098Z,21.60
2022-07-29T04:19:33.487Z,21.62
2022-07-29T04:22:02.107Z,21.61
2022-07-29T04:24:30.086Z,21.63
2022-07-29T04:26:57.734Z,21.66
2022-07-29T04:29:25.797Z,21.69
2022-07-29T04:31:53.907Z,21.70
2022-07-29T04:34:23.550Z,21.75
2022-07-29T04:36:56.497Z,21.75
2022-07-29T04:39:24.565Z,21.77
2022-07-29T04:41:52.554Z,21.78
2022-07-29T04:44:28.401Z,21.76
2022-07-29T04:46:57.756Z,21.81
2022-07-29T04:49:27.242Z,21.79
2022-07-29T04:51:55.192Z,21.81
2022-07-29T04:54:27.564Z,21.80
2022-07-29T04:56:55.225Z,21.86
2022-07-29T05:02:45.079Z,21.88
2022-07-29T05:05:17.388Z,21.90
2022-07-29T05:07:45.492Z,21.86
2022-07-29T05:10:16.711Z,21.83
2022-07-29T05:12:45.367Z,21.84
2022-07-29T05:15:13.164Z,21.84
2022-07-29T05:17:42.407Z,21.80
2022-07-29T05:20:11.209Z,21.83
2022-07-29T05:22:42.626Z,21.82
2022-07-29T05:25:10.596Z,21.77
2022-07-29T05:27:38.575Z,21.80
2022-07-29T05:30:07.498Z,21.77
2022-07-29T05:32:35.088Z,21.79
2022-07-29T05:35:03.314Z,21.75
2022-07-29T05:37:31.426Z,21.79
2022-07-29T05:40:00.641Z,21.81
2022-07-29T05:42:28.762Z,21.82
2022-07-29T05:44:57.568Z,21.85
2022-07-29T05:47:25.722Z,21.84
2022-07-29T05:49:53.695Z,21.88
2022-07-29T05:52:21.810Z,21.91
2022-07-29T05:54:50.467Z,21.92
2022-07-29T05:57:21.190Z,21.99
2022-07-29T05:59:52.153Z,22.03
2022-07-29T06:02:20.138Z,22.04
2022-07-29T06:04:48.461Z,22.06
2022-07-29T06:07:16.510Z,22.12
2022-07-29T06:09:45.486Z,22.20
2022-07-29T06:12:13.337Z,22.27
2022-07-29T06:14:42.629Z,22.37
2022-07-29T06:17:10.282Z,22.50
2022-07-29T06:19:38.017Z,22.78
2022-07-29T06:22:06.549Z,22.92
2022-07-29T06:24:34.806Z,23.02
2022-07-29T06:27:04.791Z,23.08
2022-07-29T06:29:35.942Z,23.17
2022-07-29T06:32:07.012Z,23.27
2022-07-29T06:34:35.083Z,23.37
2022-07-29T06:37:07.168Z,23.31
2022-07-29T06:39:44.960Z,23.34
2022-07-29T06:42:12.756Z,23.21
2022-07-29T06:44:41.712Z,23.21
2022-07-29T06:47:12.446Z,23.30
2022-07-29T06:49:40.226Z,23.55
2022-07-29T06:52:07.948Z,23.78
2022-07-29T06:54:36.614Z,23.75
2022-07-29T06:57:04.744Z,23.81
2022-07-29T06:59:35.771Z,23.77
2022-07-29T07:02:05.837Z,23.72
2022-07-29T07:04:37.074Z,23.78
2022-07-29T07:07:04.864Z,23.84
2022-07-29T07:09:40.646Z,23.80
2022-07-29T07:12:13.211Z,23.81
2022-07-29T07:14:44.189Z,23.82
2022-07-29T07:17:12.018Z,23.84
2022-07-29T07:19:41.448Z,23.90
2022-07-29T07:22:12.008Z,24.04
2022-07-29T07:24:39.647Z,24.10
2022-07-29T07:27:07.999Z,24.22
2022-07-29T07:29:35.962Z,24.23
2022-07-29T07:32:06.128Z,24.32
2022-07-29T07:34:34.002Z,24.32
2022-07-29T07:37:03.349Z,24.45
2022-07-29T07:39:31.592Z,24.43
2022-07-29T07:41:59.498Z,24.63
2022-07-29T07:44:27.616Z,24.63
2022-07-29T07:46:55.392Z,24.61
2022-07-29T07:49:24.526Z,24.48
2022-07-29T07:51:52.834Z,24.40
2022-07-29T07:54:21.986Z,24.33
2022-07-29T07:56:49.817Z,24.31
2022-07-29T07:59:20.685Z,24.28
2022-07-29T08:01:55.576Z,24.14
2022-07-29T08:04:28.424Z,24.08
2022-07-29T08:06:56.641Z,24.09
2022-07-29T08:09:30.290Z,24.13
2022-07-29T08:11:59.710Z,24.09
2022-07-29T08:14:27.588Z,24.01
2022-07-29T08:16:58.199Z,24.11
2022-07-29T08:19:26.518Z,24.20
2022-07-29T08:21:55.129Z,24.18
2022-07-29T08:24:25.035Z,24.26
2022-07-29T08:26:54.424Z,24.50
2022-07-29T08:29:23.840Z,24.73
2022-07-29T08:31:52.179Z,25.02
2022-07-29T08:34:24.417Z,25.01
2022-07-29T08:36:59.258Z,25.31
2022-07-29T08:39:28.383Z,25.34
2022-07-29T08:41:58.975Z,25.43
2022-07-29T08:44:30.373Z,25.33
2022-07-29T08:46:59.245Z,25.42
2022-07-29T08:49:27.346Z,25.48
2022-07-29T08:51:58.479Z,25.56
2022-07-29T08:54:26.977Z,25.56
2022-07-29T08:56:56.931Z,25.52
2022-07-29T08:59:28.871Z,25.54
2022-07-29T09:02:01.248Z,25.53
2022-07-29T09:04:34.512Z,25.81
2022-07-29T09:07:06.947Z,25.88
2022-07-29T09:09:36.283Z,25.92
2022-07-29T09:12:07.843Z,26.08
2022-07-29T09:14:41.552Z,26.12
2022-07-29T09:17:10.824Z,25.99
2022-07-29T09:19:38.698Z,25.99
2022-07-29T09:22:30.612Z,25.98
2022-07-29T09:24:59.876Z,25.95
2022-07-29T09:27:27.732Z,26.00
2022-07-29T09:30:01.587Z,26.09
2022-07-29T09:32:30.857Z,25.85
2022-07-29T09:35:20.152Z,25.60
2022-07-29T09:37:48.694Z,25.45
2022-07-29T09:40:18.740Z,25.35
2022-07-29T09:42:47.722Z,25.28
2022-07-29T09:45:29.768Z,25.13
2022-07-29T09:47:59.584Z,25.00
2022-07-29T09:50:41.070Z,25.00
2022-07-29T09:53:13.182Z,24.87
2022-07-29T09:55:55.545Z,24.86
2022-07-29T09:58:24.979Z,24.88
2022-07-29T10:00:55.375Z,24.78
2022-07-29T10:03:23.522Z,24.77
2022-07-29T10:06:06.819Z,24.68
2022-07-29T10:08:34.749Z,24.62
2022-07-29T10:11:12.286Z,24.48
2022-07-29T10:13:41.273Z,24.39
2022-07-29T10:16:12.045Z,24.41
2022-07-29T10:18:43.095Z,24.32
2022-07-29T10:21:34.523Z,24.35
2022-07-29T10:24:02.759Z,24.31
2022-07-29T10:26:31.367Z,24.28
2022-07-29T10:29:01.888Z,24.21
2022-07-29T10:32:00.259Z,24.05
2022-07-29T10:34:44.075Z,23.78
2022-07-29T10:37:23.903Z,23.57
2022-07-29T10:40:03.161Z,23.43
2022-07-29T10:42:34.372Z,23.38
2022-07-29T10:45:04.812Z,23.24
2022-07-29T10:47:38.077Z,23.23
2022-07-29T10:50:07.455Z,23.22
2022-07-29T10:53:00.464Z,23.22
2022-07-29T10:55:33.833Z,23.20
2022-07-29T11:01:37.083Z,23.27
2022-07-29T11:04:08.899Z,23.28
2022-07-29T11:07:09.950Z,23.31
2022-07-29T11:09:40.575Z,23.38
2022-07-29T11:12:49.768Z,23.38
2022-07-29T11:15:19.440Z,23.36
2022-07-29T11:18:14.959Z,23.39
2022-07-29T11:20:46.785Z,23.33
2022-07-29T11:23:20.318Z,23.36
2022-07-29T11:26:18.925Z,23.40
2022-07-29T11:28:58.561Z,23.47
2022-07-29T11:31:37.800Z,23.54
2022-07-29T11:34:28.134Z,23.64
2022-07-29T11:37:27.903Z,23.75
2022-07-29T11:40:14.501Z,23.89
2022-07-29T11:42:48.126Z,24.05
2022-07-29T11:45:43.764Z,24.22
2022-07-29T11:48:29.198Z,24.43
2022-07-29T11:51:10.987Z,24.70
2022-07-29T11:53:48.612Z,25.18
2022-07-29T11:56:25.569Z,25.60
2022-07-29T11:59:04.866Z,26.08
2022-07-29T12:01:36.341Z,26.32
2022-07-29T12:04:06.873Z,26.40
2022-07-29T12:06:34.865Z,26.39
2022-07-29T12:09:14.415Z,26.42
2022-07-29T12:11:47.355Z,26.40
2022-07-29T12:14:29.719Z,26.44
2022-07-29T12:16:57.505Z,26.38
2022-07-29T12:19:26.598Z,26.39
2022-07-29T12:21:59.740Z,26.40
2022-07-29T12:24:44.905Z,26.43
2022-07-29T12:27:18.200Z,26.47
2022-07-29T12:29:48.849Z,26.51
2022-07-29T12:32:19.801Z,26.61
2022-07-29T12:34:48.418Z,26.65
2022-07-29T12:37:16.252Z,26.74
2022-07-29T12:39:46.221Z,26.82
2022-07-29T12:42:18.657Z,26.87
2022-07-29T12:44:51.203Z,26.92
2022-07-29T12:47:20.563Z,27.02
2022-07-29T12:49:49.719Z,27.26
2022-07-29T12:52:29.200Z,27.33
2022-07-29T12:54:59.101Z,27.32
2022-07-29T12:57:27.694Z,27.33
2022-07-29T13:00:07.314Z,27.35
2022-07-29T13:02:38.146Z,27.29
2022-07-29T13:05:07.510Z,27.30
2022-07-29T13:07:55.221Z,27.38
2022-07-29T13:10:25.743Z,27.47
2022-07-29T13:13:04.676Z,27.46
2022-07-29T13:15:33.257Z,27.56
2022-07-29T13:18:01.969Z,27.68
2022-07-29T13:20:30.906Z,27.72
2022-07-29T13:23:00.674Z,27.91
2022-07-29T13:25:32.974Z,28.04
2022-07-29T13:28:01.346Z,28.10
2022-07-29T13:30:31.688Z,28.02
2022-07-29T13:32:59.641Z,27.87
2022-07-29T13:35:27.694Z,27.91
2022-07-29T13:37:55.424Z,27.82
2022-07-29T13:40:23.360Z,27.80
2022-07-29T13:42:59.919Z,27.67
2022-07-29T13:45:29.090Z,27.62
2022-07-29T13:48:00.322Z,27.72
2022-07-29T13:50:28.176Z,27.72
2022-07-29T13:52:55.850Z,27.73
2022-07-29T13:55:23.970Z,27.80
2022-07-29T13:57:51.717Z,27.93
2022-07-29T14:00:21.128Z,28.03
2022-07-29T14:02:51.093Z,28.13
2022-07-29T14:05:20.028Z,28.14
2022-07-29T14:07:47.740Z,28.20
2022-07-29T14:10:19.964Z,28.23
2022-07-29T14:12:47.884Z,28.31
2022-07-29T14:15:18.234Z,28.26
2022-07-29T14:17:48.447Z,28.21
2022-07-29T14:20:16.359Z,28.24
2022-07-29T14:22:45.724Z,28.26
2022-07-29T14:25:15.242Z,28.29
2022-07-29T14:27:46.529Z,28.32
2022-07-29T14:30:15.002Z,28.31
2022-07-29T14:32:42.794Z,28.22
2022-07-29T14:35:12.082Z,28.14
2022-07-29T14:37:40.817Z,28.05
2022-07-29T14:40:11.271Z,27.84
2022-07-29T14:42:39.776Z,27.74
2022-07-29T14:45:16.818Z,27.69
2022-07-29T14:47:45.015Z,27.65
2022-07-29T14:50:14.297Z,27.61
2022-07-29T14:52:43.640Z,27.56
2022-07-29T14:55:16.668Z,27.50
2022-07-29T14:57:48.645Z,27.42
2022-07-29T15:00:17.615Z,27.29
2022-07-29T15:03:01.317Z,27.24
2022-07-29T15:05:33.644Z,27.21
2022-07-29T15:08:01.378Z,27.18
2022-07-29T15:10:32.863Z,27.20
2022-07-29T15:13:00.649Z,27.21
2022-07-29T15:15:32.656Z,27.29
2022-07-29T15:18:00.338Z,27.36
2022-07-29T15:20:28.760Z,27.49
2022-07-29T15:23:00.264Z,27.65
2022-07-29T15:25:28.012Z,27.73
2022-07-29T15:28:01.480Z,27.72
2022-07-29T15:30:33.410Z,27.70
2022-07-29T15:33:04.727Z,27.61
2022-07-29T15:35:33.354Z,27.53
2022-07-29T15:38:10.700Z,27.51
2022-07-29T15:40:40.453Z,27.49
2022-07-29T15:43:15.617Z,27.40
2022-07-29T15:45:44.290Z,27.31
2022-07-29T15:48:14.872Z,27.25
2022-07-29T15:50:43.032Z,27.22
2022-07-29T15:53:16.278Z,27.14
2022-07-29T15:55:47.500Z,27.08
2022-07-29T15:58:15.235Z,27.07
2022-07-29T16:00:42.948Z,26.97
2022-07-29T16:03:12.640Z,26.84
2022-07-29T16:05:40.715Z,26.72
2022-07-29T16:08:09.770Z,26.65
2022-07-29T16:10:39.016Z,26.54
2022-07-29T16:13:07.074Z,26.44
2022-07-29T16:15:34.706Z,26.37
2022-07-29T16:18:04.227Z,26.29
2022-07-29T16:20:33.753Z,26.22
2022-07-29T16:23:01.547Z,26.17
2022-07-29T16:25:57.580Z,26.11
2022-07-29T16:28:20.573Z,26.06
2022-07-29T16:30:48.895Z,26.04
2022-07-29T16:33:16.720Z,26.01
2022-07-29T16:35:44.453Z,25.99
2022-07-29T16:38:12.700Z,25.98
2022-07-29T16:40:40.884Z,25.93
2022-07-29T16:43:08.530Z,25.91
2022-07-29T16:45:45.133Z,25.88
2022-07-29T16:48:18.059Z,25.86
2022-07-29T16:50:46.331Z,25.82
2022-07-29T16:53:14.106Z,25.74
2022-07-29T16:55:42.732Z,25.66
2022-07-29T16:58:10.863Z,25.62
2022-07-29T17:00:40.294Z,25.64
2022-07-29T17:03:07.985Z,25.56
2022-07-29T17:05:50.736Z,25.50
2022-07-29T17:08:21.841Z,25.44
2022-07-29T17:10:53.795Z,25.38
2022-07-29T17:13:21.883Z,24.91
2022-07-29T17:15:51.405Z,24.10
2022-07-29T17:18:52.925Z,23.64
2022-07-29T17:21:21.781Z,23.34
2022-07-29T17:23:52.710Z,23.28
2022-07-29T17:26:21.052Z,23.39
2022-07-29T17:28:48.818Z,23.49
2022-07-29T17:31:19.321Z,23.64
2022-07-29T17:33:47.988Z,23.73
2022-07-29T17:36:15.724Z,23.79
2022-07-29T17:38:44.168Z,23.89
2022-07-29T17:41:12.121Z,23.99
2022-07-29T17:43:39.853Z,23.98
2022-07-29T17:46:08.629Z,24.01
2022-07-29T17:48:38.057Z,24.00
2022-07-29T17:51:06.224Z,24.03
2022-07-29T17:53:34.146Z,24.06
2022-07-29T17:56:02.009Z,24.05
2022-07-29T17:58:30.782Z,24.02
2022-07-29T18:00:58.770Z,24.05
2022-07-29T18:03:26.934Z,24.01
2022-07-29T18:05:56.139Z,24.02
2022-07-29T18:08:24.059Z,24.02
2022-07-29T18:10:53.782Z,24.01
2022-07-29T18:13:22.066Z,24.01
2022-07-29T18:15:51.441Z,23.96
2022-07-29T18:18:19.710Z,23.99
2022-07-29T18:20:47.653Z,24.00
2022-07-29T18:23:18.509Z,24.01
2022-07-29T18:25:47.075Z,23.99
2022-07-29T18:28:15.368Z,23.99
2022-07-29T18:30:43.243Z,24.01
2022-07-29T18:33:26.238Z,24.01
2022-07-29T18:36:10.598Z,24.01
2022-07-29T18:38:42.140Z,24.00
2022-07-29T18:41:10.204Z,23.96
2022-07-29T18:43:38.105Z,23.92
2022-07-29T18:46:07.238Z,23.91
2022-07-29T18:48:35.247Z,23.91
2022-07-29T18:51:09.464Z,23.87
2022-07-29T18:53:37.626Z,23.85
2022-07-29T18:56:06.794Z,23.86
2022-07-29T18:58:35.476Z,23.87
2022-07-29T19:01:07.947Z,23.84
2022-07-29T19:03:36.146Z,23.74
2022-07-29T19:06:06.374Z,23.67
2022-07-29T19:08:37.065Z,23.56
2022-07-29T19:11:07.211Z,23.45
2022-07-29T19:13:34.892Z,23.39
2022-07-29T19:16:02.922Z,23.36
2022-07-29T19:18:34.261Z,23.25
2022-07-29T19:21:01.892Z,23.28
2022-07-29T19:23:30.489Z,23.26
2022-07-29T19:25:58.599Z,23.24
2022-07-29T19:28:28.616Z,23.27
2022-07-29T19:30:56.963Z,23.25
2022-07-29T19:33:26.114Z,23.20
2022-07-29T19:35:55.103Z,23.14
2022-07-29T19:38:23.540Z,23.14
2022-07-29T19:40:54.175Z,23.12
2022-07-29T19:43:49.679Z,23.02
2022-07-29T19:46:11.527Z,22.97
2022-07-29T19:48:39.544Z,22.93
2022-07-29T19:51:07.696Z,22.93
2022-07-29T19:53:35.651Z,22.99
2022-07-29T19:56:04.267Z,23.00
2022-07-29T19:58:32.246Z,22.99
2022-07-29T20:01:02.063Z,22.97
2022-07-29T20:03:31.432Z,22.91
2022-07-29T20:05:59.078Z,22.91
2022-07-29T20:08:26.950Z,22.88
2022-07-29T20:10:55.116Z,22.83
2022-07-29T20:13:25.352Z,22.79
2022-07-29T20:15:53.428Z,22.75
2022-07-29T20:18:21.065Z,22.74
2022-07-29T20:20:51.024Z,22.73
2022-07-29T20:23:18.762Z,22.72
2022-07-29T20:25:47.484Z,22.70
2022-07-29T20:28:15.193Z,22.62
2022-07-29T20:30:43.776Z,22.65
2022-07-29T20:33:14.937Z,22.60
2022-07-29T20:35:44.086Z,22.60
2022-07-29T20:38:18.038Z,22.62
2022-07-29T20:40:46.451Z,22.59
2022-07-29T20:43:14.303Z,22.64
2022-07-29T20:45:44.524Z,22.67
2022-07-29T20:48:12.280Z,22.75
2022-07-29T20:50:42.546Z,22.85
2022-07-29T20:53:10.377Z,22.91
2022-07-29T20:55:39.947Z,22.99
2022-07-29T20:58:07.682Z,23.03
2022-07-29T21:00:35.451Z,23.02
2022-07-29T21:03:03.808Z,23.06
2022-07-29T21:05:32.555Z,23.10
2022-07-29T21:08:00.340Z,23.11
2022-07-29T21:10:28.141Z,23.10
2022-07-29T21:12:58.386Z,23.13
2022-07-29T21:15:30.104Z,23.12
2022-07-29T21:17:59.011Z,23.15
2022-07-29T21:20:27.224Z,23.15
2022-07-29T21:22:57.854Z,23.13
2022-07-29T21:25:25.751Z,23.15
2022-07-29T21:27:54.825Z,23.16
2022-07-29T21:30:26.557Z,23.17
2022-07-29T21:32:54.616Z,23.15
2022-07-29T21:36:01.780Z,23.13
2022-07-29T21:38:10.525Z,23.11
2022-07-29T21:40:38.748Z,23.08
2022-07-29T21:43:07.082Z,23.04
2022-07-29T21:45:36.632Z,23.04
2022-07-29T21:48:05.361Z,23.03
2022-07-29T21:50:33.546Z,23.00
2022-07-29T21:53:15.967Z,22.96
2022-07-29T21:55:44.057Z,22.94
2022-07-29T21:58:12.623Z,22.89
2022-07-29T22:00:42.494Z,22.83
2022-07-29T22:03:10.507Z,22.81
2022-07-29T22:05:38.355Z,22.81
2022-07-29T22:08:07.033Z,22.80
2022-07-29T22:10:36.675Z,22.81
2022-07-29T22:13:04.686Z,22.80
2022-07-29T22:15:36.793Z,22.80
2022-07-29T22:18:12.638Z,22.80
2022-07-29T22:20:50.986Z,22.77
2022-07-29T22:23:18.926Z,22.77
2022-07-29T22:25:49.634Z,22.75
2022-07-29T22:28:19.844Z,22.73
2022-07-29T22:30:47.854Z,22.71
2022-07-29T22:33:17.995Z,22.70
2022-07-29T22:35:49.001Z,22.65
2022-07-29T22:38:17.317Z,22.61
2022-07-29T22:40:45.455Z,22.53
2022-07-29T22:43:13.475Z,22.49
2022-07-29T22:45:42.150Z,22.47
2022-07-29T22:48:09.926Z,22.44
2022-07-29T22:50:39.469Z,22.46
2022-07-29T22:53:07.188Z,22.45
2022-07-29T22:55:36.032Z,22.40
2022-07-29T22:58:04.357Z,22.42
2022-07-29T23:00:33.420Z,22.43
2022-07-29T23:03:02.578Z,22.43
2022-07-29T23:05:30.597Z,22.43
2022-07-29T23:07:59.906Z,22.43
2022-07-29T23:10:29.389Z,22.44
2022-07-29T23:12:57.805Z,22.42
2022-07-29T23:15:25.666Z,22.42
2022-07-29T23:17:53.937Z,22.42
2022-07-29T23:20:22.121Z,22.42
2022-07-29T23:22:54.489Z,22.47
2022-07-29T23:25:24.037Z,22.45
2022-07-29T23:27:55.067Z,22.46
2022-07-29T23:30:23.435Z,22.46
2022-07-29T23:32:54.505Z,22.44
2022-07-29T23:35:24.832Z,22.44
2022-07-29T23:37:52.599Z,22.38
2022-07-29T23:40:20.530Z,22.38
2022-07-29T23:42:49.664Z,22.36
2022-07-29T23:45:23.171Z,22.32
2022-07-29T23:48:07.911Z,22.32
2022-07-29T23:50:35.816Z,22.27
2022-07-29T23:53:03.565Z,22.20
2022-07-29T23:55:38.035Z,22.11
2022-07-29T23:58:08.257Z,22.06
